createdAt,value
2023-01-01T00:01:43.749Z,101125.78
2023-01-01T00:04:13.442Z,101131.88
2023-01-01T00:06:40.925Z,101129.88
2023-01-01T00:09:08.278Z,101123.13
2023-01-01T00:11:34.891Z,101119.56
2023-01-01T00:14:04.346Z,101117.97
2023-01-01T00:16:35.913Z,101118.78
2023-01-01T00:19:02.841Z,101121.28
2023-01-01T00:21:29.497Z,101116.88
2023-01-01T00:23:56.161Z,101123.00
2023-01-01T00:26:22.817Z,101122.97
2023-01-01T00:28:49.455Z,101130.94
2023-01-01T00:31:18.659Z,101119.63
2023-01-01T00:33:55.365Z,101125.41
2023-01-01T00:36:25.544Z,101121.25
2023-01-01T00:38:53.022Z,101121.22
2023-01-01T00:41:19.865Z,101124.00
2023-01-01T00:43:46.587Z,101125.59
2023-01-01T00:46:13.907Z,101117.75
2023-01-01T00:48:40.714Z,101113.13
2023-01-01T00:51:07.714Z,101122.19
2023-01-01T00:53:34.310Z,101132.56
2023-01-01T00:56:00.951Z,101129.03
2023-01-01T00:58:27.590Z,101127.38
2023-01-01T01:00:54.368Z,101134.31
2023-01-01T01:03:21.941Z,101138.50
2023-01-01T01:05:48.611Z,101128.84
2023-01-01T01:08:15.225Z,101133.97
2023-01-01T01:10:41.823Z,101129.50
2023-01-01T01:13:08.413Z,101122.00
2023-01-01T01:15:35.112Z,101122.06
2023-01-01T01:18:01.705Z,101119.25
2023-01-01T01:20:28.296Z,101122.97
2023-01-01T01:22:54.938Z,101122.81
2023-01-01T01:25:21.674Z,101117.84
2023-01-01T01:27:48.255Z,101120.06
2023-01-01T01:30:15.085Z,101119.31
2023-01-01T01:32:41.672Z,101118.59
2023-01-01T01:35:08.462Z,101125.22
2023-01-01T01:37:35.147Z,101130.44
2023-01-01T01:40:01.846Z,101126.84
2023-01-01T01:42:28.428Z,101126.88
2023-01-01T01:44:56.371Z,101125.91
2023-01-01T01:47:22.929Z,101122.47
2023-01-01T01:49:58.386Z,101120.66
2023-01-01T01:52:27.171Z,101126.00
2023-01-01T01:54:55.058Z,101118.13
2023-01-01T01:57:23.091Z,101119.09
2023-01-01T01:59:54.865Z,101115.44
2023-01-01T02:02:35.790Z,101106.88
2023-01-01T02:05:04.288Z,101110.41
2023-01-01T02:07:33.715Z,101109.41
2023-01-01T02:10:00.871Z,101122.41
2023-01-01T02:12:28.169Z,101121.41
2023-01-01T02:14:55.561Z,101115.22
2023-01-01T02:17:38.939Z,101114.59
2023-01-01T02:20:36.965Z,101118.41
2023-01-01T02:23:15.955Z,101123.59
2023-01-01T02:26:01.401Z,101130.69
2023-01-01T02:28:52.099Z,101126.28
2023-01-01T02:31:27.373Z,101127.66
2023-01-01T02:34:00.203Z,101128.22
2023-01-01T02:36:29.084Z,101134.06
2023-01-01T02:38:58.135Z,101138.75
2023-01-01T02:41:32.749Z,101140.09
2023-01-01T02:46:34.256Z,101133.78
2023-01-01T02:49:06.200Z,101130.69
2023-01-01T02:52:04.552Z,101136.53
2023-01-01T02:54:42.078Z,101131.53
2023-01-01T02:57:14.792Z,101143.78
2023-01-01T03:00:05.892Z,101130.94
2023-01-01T03:02:45.272Z,101129.13
2023-01-01T03:05:31.458Z,101136.84
2023-01-01T03:08:13.434Z,101136.81
2023-01-01T03:10:49.977Z,101136.00
2023-01-01T03:13:28.685Z,101127.06
2023-01-01T03:16:04.166Z,101126.66
2023-01-01T03:18:46.351Z,101120.88
2023-01-01T03:23:49.860Z,101136.28
2023-01-01T03:26:19.989Z,101121.59
2023-01-01T03:28:52.037Z,101123.34
2023-01-01T03:31:23.177Z,101121.56
2023-01-01T03:34:00.220Z,101117.50
2023-01-01T03:36:38.603Z,101120.13
2023-01-01T03:39:17.885Z,101114.31
2023-01-01T03:41:56.490Z,101122.66
2023-01-01T03:44:31.876Z,101116.63
2023-01-01T03:46:59.678Z,101119.25
2023-01-01T03:49:27.190Z,101119.34
2023-01-01T03:51:56.533Z,101115.28
2023-01-01T03:54:52.381Z,101119.81
2023-01-01T03:57:30.611Z,101120.72
2023-01-01T04:00:17.369Z,101115.25
2023-01-01T04:03:00.210Z,101119.66
2023-01-01T04:05:29.022Z,101119.00
2023-01-01T04:07:56.875Z,101121.66
2023-01-01T04:10:24.807Z,101123.63
2023-01-01T04:12:53.976Z,101120.75
2023-01-01T04:15:25.969Z,101121.38
2023-01-01T04:17:53.315Z,101125.66
2023-01-01T04:20:20.999Z,101125.69
2023-01-01T04:22:47.772Z,101115.69
2023-01-01T04:25:15.729Z,101117.34
2023-01-01T04:27:42.361Z,101116.97
2023-01-01T04:30:11.876Z,101109.09
2023-01-01T04:32:38.940Z,101128.78
2023-01-01T04:35:07.174Z,101129.63
2023-01-01T04:37:36.112Z,101132.28
2023-01-01T04:40:03.668Z,101117.34
2023-01-01T04:42:30.281Z,101119.19
2023-01-01T04:44:56.920Z,101115.72
2023-01-01T04:47:23.926Z,101115.06
2023-01-01T04:49:50.593Z,101108.94
2023-01-01T04:52:17.260Z,101114.25
2023-01-01T04:54:43.966Z,101120.25
2023-01-01T04:57:10.644Z,101113.19
2023-01-01T04:59:37.307Z,101120.91
2023-01-01T05:02:04.065Z,101127.69
2023-01-01T05:04:30.884Z,101131.00
2023-01-01T05:06:57.532Z,101125.06
2023-01-01T05:09:24.171Z,101136.72
2023-01-01T05:11:50.814Z,101138.56
2023-01-01T05:14:17.433Z,101141.88
2023-01-01T05:16:44.109Z,101131.59
2023-01-01T05:19:10.796Z,101133.41
2023-01-01T05:21:39.865Z,101121.06
2023-01-01T05:24:10.007Z,101122.13
2023-01-01T05:26:42.768Z,101119.16
2023-01-01T05:29:16.090Z,101125.78
2023-01-01T05:31:43.534Z,101124.13
2023-01-01T05:34:10.340Z,101122.47
2023-01-01T05:36:37.923Z,101126.28
2023-01-01T05:39:10.115Z,101134.41
2023-01-01T05:41:37.058Z,101130.09
2023-01-01T05:44:07.574Z,101135.66
2023-01-01T05:46:34.198Z,101145.88
2023-01-01T05:49:01.000Z,101147.94
2023-01-01T05:51:29.299Z,101138.69
2023-01-01T05:53:56.979Z,101155.78
2023-01-01T05:56:24.339Z,101148.19
2023-01-01T05:58:51.143Z,101136.97
2023-01-01T06:01:17.810Z,101142.63
2023-01-01T06:03:45.131Z,101145.94
2023-01-01T06:06:14.677Z,101153.41
2023-01-01T06:08:41.602Z,101157.31
2023-01-01T06:11:11.825Z,101172.53
2023-01-01T06:13:38.753Z,101171.78
2023-01-01T06:16:05.945Z,101180.88
2023-01-01T06:18:34.659Z,101183.00
2023-01-01T06:21:06.668Z,101181.47
2023-01-01T06:23:33.604Z,101190.50
2023-01-01T06:26:15.545Z,101206.34
2023-01-01T06:28:43.497Z,101216.06
2023-01-01T06:31:12.679Z,101220.75
2023-01-01T06:33:40.472Z,101216.44
2023-01-01T06:36:09.610Z,101229.63
2023-01-01T06:38:38.964Z,101224.47
2023-01-01T06:41:08.661Z,101228.06
2023-01-01T06:43:35.778Z,101225.66
2023-01-01T06:46:20.464Z,101229.69
2023-01-01T06:48:50.714Z,101234.69
2023-01-01T06:51:19.955Z,101235.38
2023-01-01T06:53:48.012Z,101232.38
2023-01-01T06:56:14.815Z,101231.22
2023-01-01T06:58:41.639Z,101237.59
2023-01-01T07:01:12.984Z,101236.50
2023-01-01T07:03:40.809Z,101230.41
2023-01-01T07:06:08.424Z,101231.00
2023-01-01T07:08:35.675Z,101233.56
2023-01-01T07:11:02.455Z,101237.81
2023-01-01T07:13:30.404Z,101246.66
2023-01-01T07:15:57.710Z,101245.94
2023-01-01T07:18:25.237Z,101244.72
2023-01-01T07:20:57.766Z,101236.91
2023-01-01T07:23:25.878Z,101238.97
2023-01-01T07:25:54.162Z,101233.25
2023-01-01T07:28:22.479Z,101222.50
2023-01-01T07:30:50.088Z,101228.56
2023-01-01T07:33:20.599Z,101228.72
2023-01-01T07:35:47.418Z,101225.78
2023-01-01T07:38:15.316Z,101229.84
2023-01-01T07:40:42.572Z,101229.44
2023-01-01T07:43:09.566Z,101217.25
2023-01-01T07:45:36.577Z,101225.59
2023-01-01T07:48:03.543Z,101215.66
2023-01-01T07:50:32.596Z,101214.00
2023-01-01T07:52:59.258Z,101222.63
2023-01-01T07:55:27.014Z,101227.13
2023-01-01T07:57:53.676Z,101234.78
2023-01-01T08:00:21.775Z,101239.47
2023-01-01T08:02:48.903Z,101247.81
2023-01-01T08:05:18.723Z,101238.06
2023-01-01T08:07:50.799Z,101241.84
2023-01-01T08:10:18.782Z,101249.31
2023-01-01T08:12:45.509Z,101253.31
2023-01-01T08:15:14.551Z,101266.09
2023-01-01T08:17:46.554Z,101266.69
2023-01-01T08:20:14.487Z,101265.41
2023-01-01T08:22:41.331Z,101267.03
2023-01-01T08:25:08.577Z,101267.81
2023-01-01T08:27:35.670Z,101271.84
2023-01-01T08:30:02.480Z,101284.88
2023-01-01T08:32:29.142Z,101285.72
2023-01-01T08:34:55.775Z,101297.41
2023-01-01T08:37:23.506Z,101282.31
2023-01-01T08:39:52.223Z,101288.47
2023-01-01T08:42:18.866Z,101294.38
2023-01-01T08:44:45.706Z,101289.03
2023-01-01T08:47:22.185Z,101288.25
2023-01-01T08:49:49.306Z,101287.34
2023-01-01T08:52:16.014Z,101287.47
2023-01-01T08:54:42.793Z,101299.09
2023-01-01T08:57:09.859Z,101290.84
2023-01-01T08:59:36.497Z,101289.75
2023-01-01T09:02:03.451Z,101288.59
2023-01-01T09:04:30.234Z,101271.78
2023-01-01T09:06:56.843Z,101268.56
2023-01-01T09:09:31.089Z,101266.84
2023-01-01T09:11:59.503Z,101272.91
2023-01-01T09:14:26.115Z,101273.63
2023-01-01T09:16:52.712Z,101262.38
2023-01-01T09:19:19.343Z,101273.69
2023-01-01T09:21:46.005Z,101265.50
2023-01-01T09:24:12.645Z,101270.63
2023-01-01T09:26:39.293Z,101276.00
2023-01-01T09:29:06.002Z,101275.78
2023-01-01T09:31:32.751Z,101284.78
2023-01-01T09:33:59.455Z,101276.13
2023-01-01T09:36:29.611Z,101280.25
2023-01-01T09:38:57.630Z,101279.22
2023-01-01T09:42:16.434Z,101280.13
2023-01-01T09:45:03.166Z,101273.28
2023-01-01T09:47:40.005Z,101282.94
2023-01-01T09:50:14.150Z,101289.06
2023-01-01T09:52:53.101Z,101283.06
2023-01-01T09:55:41.911Z,101274.00
2023-01-01T09:58:11.079Z,101270.72
2023-01-01T10:00:45.282Z,101265.63
2023-01-01T10:03:25.898Z,101270.13
2023-01-01T10:06:29.878Z,101273.81
2023-01-01T10:09:21.105Z,101269.00
2023-01-01T10:11:59.709Z,101269.19
2023-01-01T10:14:56.484Z,101271.97
2023-01-01T10:17:40.340Z,101276.22
2023-01-01T10:20:28.864Z,101281.44
2023-01-01T10:23:04.102Z,101279.47
2023-01-01T10:25:33.797Z,101275.25
2023-01-01T10:28:11.396Z,101277.56
2023-01-01T10:30:39.675Z,101275.69
2023-01-01T10:33:12.800Z,101267.44
2023-01-01T10:35:47.717Z,101265.78
2023-01-01T10:38:25.849Z,101251.00
2023-01-01T10:40:58.411Z,101260.63
2023-01-01T10:43:25.024Z,101256.25
2023-01-01T10:45:54.009Z,101252.88
2023-01-01T10:48:21.899Z,101247.44
2023-01-01T10:50:55.042Z,101259.41
2023-01-01T10:53:31.482Z,101250.56
2023-01-01T10:56:36.042Z,101246.66
2023-01-01T10:59:02.628Z,101236.34
2023-01-01T11:01:31.972Z,101240.13
2023-01-01T11:04:13.717Z,101239.44
2023-01-01T11:06:44.584Z,101243.16
2023-01-01T11:09:29.391Z,101237.00
2023-01-01T11:12:07.914Z,101218.78
2023-01-01T11:14:43.985Z,101219.72
2023-01-01T11:17:10.883Z,101208.44
2023-01-01T11:19:44.380Z,101202.41
2023-01-01T11:22:41.253Z,101191.94
2023-01-01T11:25:26.539Z,101180.81
2023-01-01T11:28:15.599Z,101167.16
2023-01-01T11:31:10.020Z,101166.38
2023-01-01T11:33:51.439Z,101166.47
2023-01-01T11:36:24.561Z,101170.97
2023-01-01T11:39:08.173Z,101178.88
2023-01-01T11:41:47.232Z,101185.88
2023-01-01T11:44:29.586Z,101191.16
2023-01-01T11:46:56.299Z,101198.09
2023-01-01T11:49:27.296Z,101199.75
2023-01-01T11:51:53.926Z,101195.38
2023-01-01T11:54:32.424Z,101193.66
2023-01-01T11:57:07.534Z,101184.09
2023-01-01T11:59:50.956Z,101177.97
2023-01-01T12:02:40.294Z,101177.16
2023-01-01T12:05:15.604Z,101169.28
2023-01-01T12:07:43.962Z,101162.31
2023-01-01T12:10:32.294Z,101165.75
2023-01-01T12:13:18.578Z,101157.03
2023-01-01T12:16:07.377Z,101154.53
2023-01-01T12:18:42.368Z,101155.44
2023-01-01T12:21:18.955Z,101161.56
2023-01-01T12:23:46.003Z,101153.63
2023-01-01T12:26:44.467Z,101156.28
2023-01-01T12:29:35.876Z,101146.66
2023-01-01T12:32:24.080Z,101154.53
2023-01-01T12:35:11.882Z,101155.38
2023-01-01T12:38:12.403Z,101147.56
2023-01-01T12:40:53.525Z,101134.47
2023-01-01T12:43:52.473Z,101140.59
2023-01-01T12:46:28.205Z,101139.72
2023-01-01T12:49:14.650Z,101135.31
2023-01-01T12:52:11.470Z,101130.94
2023-01-01T12:54:51.140Z,101132.69
2023-01-01T12:57:36.385Z,101128.31
2023-01-01T13:00:16.516Z,101137.91
2023-01-01T13:03:05.484Z,101136.13
2023-01-01T13:05:39.966Z,101151.00
2023-01-01T13:08:07.115Z,101147.53
2023-01-01T13:10:36.612Z,101154.50
2023-01-01T13:13:04.034Z,101161.50
2023-01-01T13:15:39.605Z,101156.25
2023-01-01T13:18:24.234Z,101158.88
2023-01-01T13:20:53.885Z,101159.78
2023-01-01T13:23:34.697Z,101164.16
2023-01-01T13:26:19.377Z,101165.03
2023-01-01T13:28:58.346Z,101169.38
2023-01-01T13:31:40.457Z,101165.03
2023-01-01T13:34:34.803Z,101168.56
2023-01-01T13:37:10.235Z,101165.91
2023-01-01T13:39:52.240Z,101172.91
2023-01-01T13:42:43.787Z,101171.19
2023-01-01T13:46:09.385Z,101168.56
2023-01-01T13:48:15.298Z,101171.19
2023-01-01T13:51:03.959Z,101172.03
2023-01-01T13:53:33.410Z,101183.31
2023-01-01T13:56:38.055Z,101180.69
2023-01-01T13:59:23.411Z,101186.72
2023-01-01T14:02:21.054Z,101190.16
2023-01-01T14:05:01.887Z,101194.59
2023-01-01T14:07:52.053Z,101198.06
2023-01-01T14:10:27.973Z,101197.09
2023-01-01T14:13:02.141Z,101197.06
2023-01-01T14:15:34.977Z,101203.09
2023-01-01T14:18:05.252Z,101205.81
2023-01-01T14:20:36.779Z,101201.53
2023-01-01T14:23:13.439Z,101197.09
2023-01-01T14:25:43.077Z,101197.94
2023-01-01T14:28:24.419Z,101204.03
2023-01-01T14:30:52.729Z,101196.13
2023-01-01T14:33:28.709Z,101204.09
2023-01-01T14:36:00.629Z,101188.38
2023-01-01T14:38:29.768Z,101199.69
2023-01-01T14:41:00.370Z,101201.47
2023-01-01T14:43:27.037Z,101200.53
2023-01-01T14:45:53.836Z,101197.09
2023-01-01T14:48:20.614Z,101205.00
2023-01-01T14:50:50.773Z,101203.28
2023-01-01T14:53:21.364Z,101199.78
2023-01-01T14:55:49.626Z,101198.94
2023-01-01T14:58:21.271Z,101203.34
2023-01-01T15:00:48.630Z,101207.66
2023-01-01T15:03:18.219Z,101216.44
2023-01-01T15:05:57.650Z,101212.84
2023-01-01T15:08:25.196Z,101206.69
2023-01-01T15:10:53.700Z,101205.91
2023-01-01T15:13:26.089Z,101206.75
2023-01-01T15:15:55.655Z,101211.03
2023-01-01T15:18:44.651Z,101212.81
2023-01-01T15:21:32.599Z,101223.25
2023-01-01T15:24:13.333Z,101226.78
2023-01-01T15:26:50.063Z,101218.94
2023-01-01T15:29:29.301Z,101211.91
2023-01-01T15:32:02.873Z,101219.84
2023-01-01T15:34:32.613Z,101216.31
2023-01-01T15:37:44.123Z,101215.41
2023-01-01T15:40:13.504Z,101232.06
2023-01-01T15:42:42.871Z,101234.75
2023-01-01T15:45:24.597Z,101241.69
2023-01-01T15:48:24.275Z,101241.44
2023-01-01T15:50:50.833Z,101237.28
2023-01-01T15:53:20.317Z,101241.56
2023-01-01T15:55:55.763Z,101241.53
2023-01-01T15:58:34.234Z,101244.22
2023-01-01T16:01:04.301Z,101244.34
2023-01-01T16:03:33.908Z,101235.69
2023-01-01T16:06:01.083Z,101258.41
2023-01-01T16:08:27.887Z,101268.66
2023-01-01T16:10:54.465Z,101266.84
2023-01-01T16:13:21.097Z,101245.97
2023-01-01T16:15:57.341Z,101246.03
2023-01-01T16:18:35.646Z,101254.00
2023-01-01T16:21:05.461Z,101253.97
2023-01-01T16:23:32.181Z,101253.06
2023-01-01T16:25:58.790Z,101248.69
2023-01-01T16:28:25.376Z,101252.84
2023-01-01T16:30:52.276Z,101255.53
2023-01-01T16:33:21.351Z,101253.94
2023-01-01T16:35:48.047Z,101256.53
2023-01-01T16:38:15.295Z,101258.28
2023-01-01T16:40:41.872Z,101264.44
2023-01-01T16:43:18.613Z,101265.28
2023-01-01T16:45:45.539Z,101261.69
2023-01-01T16:48:12.299Z,101265.09
2023-01-01T16:50:39.043Z,101276.56
2023-01-01T16:53:05.646Z,101274.09
2023-01-01T16:55:32.347Z,101280.13
2023-01-01T16:58:38.077Z,101280.22
2023-01-01T17:00:45.700Z,101283.63
2023-01-01T17:03:13.130Z,101282.94
2023-01-01T17:05:44.334Z,101281.06
2023-01-01T17:08:11.660Z,101291.13
2023-01-01T17:10:38.384Z,101289.75
2023-01-01T17:13:06.117Z,101278.59
2023-01-01T17:15:32.764Z,101274.00
2023-01-01T17:18:01.788Z,101272.19
2023-01-01T17:20:28.515Z,101280.81
2023-01-01T17:22:58.271Z,101278.22
2023-01-01T17:25:24.893Z,101274.91
2023-01-01T17:27:53.573Z,101276.63
2023-01-01T17:30:20.198Z,101271.38
2023-01-01T17:32:46.793Z,101279.94
2023-01-01T17:35:13.412Z,101276.28
2023-01-01T17:37:40.047Z,101273.94
2023-01-01T17:40:07.467Z,101274.88
2023-01-01T17:42:34.707Z,101284.38
2023-01-01T17:45:01.303Z,101279.22
2023-01-01T17:47:32.835Z,101280.94
2023-01-01T17:50:00.616Z,101273.09
2023-01-01T17:52:27.316Z,101282.78
2023-01-01T17:54:54.006Z,101282.72
2023-01-01T17:57:20.651Z,101282.69
2023-01-01T17:59:47.293Z,101282.66
2023-01-01T18:02:14.711Z,101283.56
2023-01-01T18:04:41.632Z,101283.44
2023-01-01T18:07:08.257Z,101284.47
2023-01-01T18:09:34.890Z,101294.03
2023-01-01T18:12:01.466Z,101293.25
2023-01-01T18:14:28.068Z,101289.59
2023-01-01T18:16:54.718Z,101288.66
2023-01-01T18:19:21.376Z,101287.03
2023-01-01T18:21:48.203Z,101281.94
2023-01-01T18:24:16.055Z,101277.50
2023-01-01T18:26:43.053Z,101286.34
2023-01-01T18:29:09.733Z,101302.06
2023-01-01T18:31:36.370Z,101294.84
2023-01-01T18:34:03.286Z,101291.31
2023-01-01T18:36:32.747Z,101291.50
2023-01-01T18:39:16.034Z,101290.53
2023-01-01T18:41:48.708Z,101290.47
2023-01-01T18:44:25.147Z,101283.56
2023-01-01T18:47:09.499Z,101289.63
2023-01-01T18:49:37.526Z,101300.19
2023-01-01T18:52:31.477Z,101291.41
2023-01-01T18:55:03.263Z,101304.50
2023-01-01T18:57:30.010Z,101293.25
2023-01-01T18:59:59.318Z,101301.09
2023-01-01T19:02:39.291Z,101294.97
2023-01-01T19:05:14.781Z,101296.72
2023-01-01T19:07:41.901Z,101295.78
2023-01-01T19:10:11.133Z,101294.94
2023-01-01T19:12:37.754Z,101294.97
2023-01-01T19:15:19.539Z,101301.16
2023-01-01T19:17:46.217Z,101285.41
2023-01-01T19:20:19.022Z,101279.22
2023-01-01T19:22:45.714Z,101286.13
2023-01-01T19:25:35.372Z,101285.31
2023-01-01T19:28:17.335Z,101288.78
2023-01-01T19:30:45.487Z,101283.59
2023-01-01T19:33:12.885Z,101287.22
2023-01-01T19:35:39.658Z,101287.09
2023-01-01T19:38:06.242Z,101283.63
2023-01-01T19:40:32.972Z,101277.56
2023-01-01T19:42:59.717Z,101283.59
2023-01-01T19:45:26.350Z,101283.56
2023-01-01T19:47:53.014Z,101288.81
2023-01-01T19:50:19.615Z,101277.50
2023-01-01T19:52:46.267Z,101274.84
2023-01-01T19:55:13.608Z,101278.41
2023-01-01T19:57:40.286Z,101274.84
2023-01-01T20:00:07.619Z,101270.47
2023-01-01T20:02:50.096Z,101276.63
2023-01-01T20:05:16.954Z,101267.03
2023-01-01T20:07:43.638Z,101264.44
2023-01-01T20:10:10.336Z,101264.47
2023-01-01T20:12:37.273Z,101268.81
2023-01-01T20:15:04.521Z,101263.56
2023-01-01T20:17:31.249Z,101275.84
2023-01-01T20:19:57.894Z,101274.13
2023-01-01T20:22:24.978Z,101275.81
2023-01-01T20:24:51.703Z,101271.41
2023-01-01T20:27:18.426Z,101263.53
2023-01-01T20:29:45.060Z,101263.56
2023-01-01T20:32:11.661Z,101272.47
2023-01-01T20:34:39.793Z,101272.34
2023-01-01T20:37:06.479Z,101274.03
2023-01-01T20:39:33.719Z,101278.47
2023-01-01T20:42:00.372Z,101270.47
2023-01-01T20:44:27.112Z,101268.66
2023-01-01T20:46:53.810Z,101275.84
2023-01-01T20:49:21.251Z,101274.00
2023-01-01T20:51:50.608Z,101274.09
2023-01-01T20:54:21.944Z,101280.13
2023-01-01T20:56:48.710Z,101280.13
2023-01-01T20:59:34.062Z,101274.91
2023-01-01T21:02:02.092Z,101278.41
2023-01-01T21:04:28.878Z,101272.25
2023-01-01T21:06:55.513Z,101273.16
2023-01-01T21:09:22.157Z,101272.38
2023-01-01T21:11:49.232Z,101275.72
2023-01-01T21:14:15.856Z,101273.19
2023-01-01T21:16:44.180Z,101272.28
2023-01-01T21:19:11.271Z,101273.13
2023-01-01T21:21:46.770Z,101274.09
2023-01-01T21:24:21.386Z,101262.69
2023-01-01T21:26:49.247Z,101267.06
2023-01-01T21:29:25.698Z,101264.31
2023-01-01T21:31:57.803Z,101269.72
2023-01-01T21:34:41.297Z,101271.47
2023-01-01T21:37:20.792Z,101268.78
2023-01-01T21:39:47.430Z,101275.84
2023-01-01T21:42:24.329Z,101274.91
2023-01-01T21:44:56.514Z,101280.25
2023-01-01T21:47:24.582Z,101273.16
2023-01-01T21:49:55.105Z,101276.84
2023-01-01T21:52:24.165Z,101270.72
2023-01-01T21:54:50.768Z,101268.00
2023-01-01T21:57:19.721Z,101270.66
2023-01-01T21:59:46.837Z,101274.09
2023-01-01T22:02:13.507Z,101267.06
2023-01-01T22:04:42.368Z,101272.34
2023-01-01T22:10:18.161Z,101262.69
2023-01-01T22:12:45.802Z,101260.03
2023-01-01T22:15:30.773Z,101259.28
2023-01-01T22:18:02.093Z,101260.19
2023-01-01T22:20:36.521Z,101261.09
2023-01-01T22:23:17.577Z,101256.66
2023-01-01T22:25:44.235Z,101255.78
2023-01-01T22:28:24.310Z,101248.72
2023-01-01T22:30:59.213Z,101251.34
2023-01-01T22:33:41.984Z,101237.38
2023-01-01T22:36:15.839Z,101244.31
2023-01-01T22:38:42.722Z,101242.50
2023-01-01T22:41:09.978Z,101240.00
2023-01-01T22:43:39.672Z,101242.66
2023-01-01T22:46:25.331Z,101235.63
2023-01-01T22:48:57.685Z,101239.97
2023-01-01T22:51:27.424Z,101239.16
2023-01-01T22:53:53.993Z,101230.47
2023-01-01T22:56:20.621Z,101229.69
2023-01-01T22:58:51.609Z,101226.94
2023-01-01T23:01:21.591Z,101224.25
2023-01-01T23:03:48.284Z,101225.94
2023-01-01T23:06:15.094Z,101219.81
2023-01-01T23:08:41.930Z,101213.72
2023-01-01T23:11:08.679Z,101211.91
2023-01-01T23:13:35.299Z,101213.66
2023-01-01T23:16:02.165Z,101215.47
2023-01-01T23:18:34.184Z,101213.78
2023-01-01T23:21:03.559Z,101212.75
2023-01-01T23:23:32.758Z,101209.34
2023-01-01T23:26:00.566Z,101212.84
2023-01-01T23:28:28.881Z,101204.94
2023-01-01T23:30:57.752Z,101205.03
2023-01-01T23:33:24.473Z,101201.53
2023-01-01T23:35:52.728Z,101192.69
2023-01-01T23:38:20.271Z,101197.19
2023-01-01T23:40:46.899Z,101199.59
2023-01-01T23:43:13.604Z,101195.22
2023-01-01T23:45:40.465Z,101192.50
2023-01-01T23:48:08.066Z,101188.16
2023-01-01T23:50:35.123Z,101188.25
2023-01-01T23:53:01.704Z,101198.66
2023-01-01T23:55:28.413Z,101184.56
2023-01-01T23:57:55.060Z,101191.50
